Nearby METAR Reports

 

KMTN - Baltimore/Martin, Maryland, USA
Distance from station: SSE 8mi, 13km
Updated: Mon, 28-Jul-2014 7:45pm EDT
Partly cloudy
Partly cloudy
 Wind from W
Wind: W 15 mph , 24 km/h, Gust: 25 mph , 41 km/h
Temperature: 79°F , 26°C
Dew Point: 61°F , 16°C
Humidity: 54%
Barometer: 29.71 inHg , 1006.1 hPa
Clouds: Partly cloudy
Visibility: 10 miles , 16 km
Cloud details: Partly cloudy 9000 ft
2014/07/28 23:45 KMTN 282345Z 26013G22KT 10SM SCT090 26/16 A2971
KDMH - Baltimore/Dwntwn, Maryland, USA
Distance from station: SW 12mi, 19km
Updated: Mon, 28-Jul-2014 7:54pm EDT

 
Temperature: 77°F , 25°C
Dew Point: 57°F , 14°C
Humidity: 51%
Barometer: 29.72 inHg , 1006.4 hPa
2014/07/28 23:54 KDMH 282354Z AUTO 25/14 A2972 RMK AO1 SLP065 T02500144 10300 20250 53018
 
KBWI - Balto/Wash Intl, Maryland, USA
Distance from station: SSW 20mi, 33km
Updated: Mon, 28-Jul-2014 7:54pm EDT
Mostly cloudy
Mostly cloudy
 Wind from W
Wind: W 14 mph , 22 km/h, Gust: 22 mph , 35 km/h
Temperature: 75°F , 24°C
Dew Point: 57°F , 14°C
Humidity: 54%
Barometer: 29.72 inHg , 1006.4 hPa
Clouds: Mostly cloudy
Visibility: 10 miles , 16 km
Cloud details: Few Clouds 5000 ft
Mostly cloudy 6500 ft
Mostly cloudy 10000 ft
2014/07/28 23:54 KBWI 282354Z 27012G19KT 10SM FEW050 BKN065 BKN100 24/14 A2972 RMK AO2 PK WND 27026/2315 SLP062 ACSL OHD AND SE-SW T02440144 10300 20244 53017
KDMW - Carroll Cnty, Maryland, USA
Distance from station: WNW 30mi, 48km
Updated: Mon, 28-Jul-2014 8:10pm EDT
Mostly cloudy
Mostly cloudy
 Wind from NW
Wind: NW 9 mph , 15 km/h, Gust: 18 mph , 30 km/h
Temperature: 70°F , 21°C
Dew Point: 63°F , 17°C
Humidity: 78%
Barometer: 29.77 inHg , 1008.1 hPa
Clouds: Mostly cloudy
Visibility: 10 miles , 16 km
Cloud details: Partly cloudy 4100 ft
Mostly cloudy 11000 ft
2014/07/29 00:10 KDMW 290010Z AUTO 32008G16KT 10SM SCT041 BKN110 21/17 A2977 RMK AO2
 
KNAK - Annapolis/Naval, Maryland, USA
Distance from station: S 30mi, 48km
Updated: Mon, 28-Jul-2014 7:54pm EDT
Few Clouds
Few Clouds
 Wind from WNW
Wind: WNW 9 mph , 15 km/h, Gust: 18 mph , 30 km/h
Temperature: 79°F , 26°C
Dew Point: 57°F , 14°C
Humidity: 48%
Barometer: 29.72 inHg , 1006.4 hPa
Clouds: Few Clouds
Visibility: 10 miles , 16 km
Cloud details: Few Clouds 7000 ft
2014/07/28 23:54 KNAK 282354Z AUTO 29008G16KT 10SM FEW070 26/14 A2972 RMK AO2 SLP064 T02560144 10289 20256 53016
KW29 - Stevensville, Maryland, USA
Distance from station: SSE 31mi, 50km
Updated: Mon, 28-Jul-2014 8:10pm EDT

 Wind from W
Wind: W 13 mph , 20 km/h, Gust: 18 mph , 30 km/h
Temperature: 77°F , 25°C
Dew Point: 57°F , 14°C
Humidity: 51%
Barometer: 29.72 inHg , 1006.4 hPa
Visibility: 10 miles , 16 km
2014/07/29 00:10 KW29 290010Z AUTO 28011G16KT 10SM 25/14 A2972 RMK AO1
 
KCGS - College Park, Maryland, USA
Distance from station: SW 38mi, 61km
Updated: Mon, 28-Jul-2014 8:10pm EDT
Partly cloudy
Partly cloudy
 Wind from WNW
Wind: WNW 13 mph , 20 km/h, Gust: 24 mph , 39 km/h
Temperature: 77°F , 25°C
Dew Point: 59°F , 15°C
Humidity: 54%
Barometer: 29.75 inHg , 1007.5 hPa
Clouds: Partly cloudy
Visibility: 10 miles , 16 km
Cloud details: Partly cloudy 6500 ft
Partly cloudy 7000 ft
2014/07/29 00:10 KCGS 290010Z AUTO 29011G21KT 10SM SCT065 SCT070 25/15 A2975 RMK AO1
KGAI - Gaithersburg, Maryland, USA
Distance from station: WSW 40mi, 65km
Updated: Mon, 28-Jul-2014 8:15pm EDT
Mostly cloudy
Mostly cloudy
 Wind from NW
Wind: NW 6 mph , 9 km/h
Temperature: 70°F , 21°C
Dew Point: 59°F , 15°C
Humidity: 69%
Barometer: 29.81 inHg , 1009.5 hPa
Clouds: Mostly cloudy
Visibility: 10 miles , 16 km
Cloud details: Few Clouds 4300 ft
Mostly cloudy 12000 ft
2014/07/29 00:15 KGAI 290015Z AUTO 31005KT 10SM FEW043 BKN120 21/15 A2981 RMK AO1
 
KTHV - York, Pennsylvania, USA
Distance from station: NNW 40mi, 65km
Updated: Mon, 28-Jul-2014 7:53pm EDT
Overcast
Overcast
 Wind from NW
Wind: NW 3 mph , 6 km/h
Temperature: 66°F , 19°C
Dew Point: 63°F , 17°C
Humidity: 88%
Barometer: 29.76 inHg , 1007.8 hPa
Clouds: Overcast
Visibility: 10 miles , 16 km
Cloud details: Few Clouds 5000 ft
Mostly cloudy 8000 ft
Overcast 11000 ft
2014/07/28 23:53 KTHV 282353Z AUTO 32003KT 10SM FEW050 BKN080 OVC110 19/17 A2976 RMK AO2 WSHFT 2249 RAE2255B35E51 SLP075 P0000 60000 T01890167 10261 20189 53032
KFDK - Frederick, Maryland, USA
Distance from station: W 47mi, 75km
Updated: Mon, 28-Jul-2014 7:55pm EDT

 
Visibility: 50 miles
2014/07/28 23:55 KFDK 282355Z 31008G14 10SM BKN055 22/17 A2980
 
KESN - Easton/Newnam, Maryland, USA
Distance from station: SSE 48mi, 78km
Updated: Mon, 28-Jul-2014 7:50pm EDT
Mostly cloudy
Mostly cloudy
 Wind from WNW
Wind: WNW 8 mph , 13 km/h
Temperature: 82°F , 28°C
Heat Index: 82°F , 28°C
Dew Point: 59°F , 15°C
Humidity: 45%
Barometer: 29.75 inHg , 1007.5 hPa
Clouds: Mostly cloudy
Visibility: 10 miles , 16 km
Cloud details: Mostly cloudy 11000 ft
2014/07/28 23:50 KESN 282350Z 30007KT 10SM BKN110 28/15 A2975
KDCA - Washington/Natl, Washington D.c., USA
Distance from station: SW 49mi, 79km
Updated: Mon, 28-Jul-2014 7:52pm EDT
Mostly cloudy
Mostly cloudy
 Wind from WNW
Wind: WNW 12 mph , 19 km/h, Gust: 25 mph , 41 km/h
Temperature: 79°F , 26°C
Dew Point: 55°F , 13°C
Humidity: 45%
Barometer: 29.75 inHg , 1007.5 hPa
Clouds: Mostly cloudy
Visibility: 10 miles , 16 km
Cloud details: Mostly cloudy 6500 ft
Mostly cloudy 11000 ft
2014/07/28 23:52 KDCA 282352Z 29010G22KT 10SM BKN065 BKN110 26/13 A2975 RMK AO2 PK WND 30027/2253 SLP074 T02610133 10300 20261 53020
 
KLNS - Lancaster, Pennsylvania, USA
Distance from station: N 49mi, 79km
Updated: Mon, 28-Jul-2014 7:53pm EDT
Light rain, Mist, Overcast
Light rain, Mist, Overcast
 Wind from WNW
Wind: WNW 7 mph , 11 km/h
Temperature: 64°F , 18°C
Dew Point: 63°F , 17°C
Humidity: 94%
Barometer: 29.73 inHg , 1006.8 hPa
Summary: Light rain, Mist
Clouds: Overcast
Visibility: 6 miles , 10 km
Cloud details: Few Clouds 7000 ft
Partly cloudy 8000 ft
Overcast 10000 ft
2014/07/28 23:53 KLNS 282353Z 29006KT 6SM -RA BR FEW070 SCT080 OVC100 18/17 A2973 RMK AO2 SLP066 P0004 60036 T01830167 10267 20172 51026
KILG - Wilmington, Delaware, USA
Distance from station: ENE 50mi, 81km
Updated: Mon, 28-Jul-2014 8:03pm EDT
Mostly cloudy
Mostly cloudy
 Wind from NW
Wind: NW 15 mph , 24 km/h, Gust: 26 mph , 43 km/h
Temperature: 73°F , 23°C
Dew Point: 59°F , 15°C
Humidity: 61%
Barometer: 29.71 inHg , 1006.1 hPa
Clouds: Mostly cloudy
Visibility: 10 miles , 16 km
Cloud details: Partly cloudy 4800 ft
Mostly cloudy 7000 ft
Mostly cloudy 8500 ft
2014/07/29 00:03 KILG 290003Z 31013G23KT 10SM SCT048 BKN070 BKN085 23/15 A2971 RMK AO2 WSHFT 2343 T02280150